sensor_id;sensor_type;location;lat;lon;timestamp;P1;durP1;ratioP1;P2;durP2;ratioP2
72205;SDS011;60111;48.286;7.812;2023-02-26T00:00:33;3.98;;;1.82;;
72205;SDS011;60111;48.286;7.812;2023-02-26T00:03:05;3.45;;;1.70;;
72205;SDS011;60111;48.286;7.812;2023-02-26T00:05:38;2.55;;;1.77;;
72205;SDS011;60111;48.286;7.812;2023-02-26T00:08:10;4.92;;;2.10;;
72205;SDS011;60111;48.286;7.812;2023-02-26T00:10:43;6.47;;;2.08;;
72205;SDS011;60111;48.286;7.812;2023-02-26T00:13:16;3.35;;;1.80;;
72205;SDS011;60111;48.286;7.812;2023-02-26T00:15:54;7.00;;;1.85;;
72205;SDS011;60111;48.286;7.812;2023-02-26T00:18:24;4.08;;;1.90;;
72205;SDS011;60111;48.286;7.812;2023-02-26T00:20:57;2.65;;;1.60;;
72205;SDS011;60111;48.286;7.812;2023-02-26T00:23:30;3.02;;;1.80;;
72205;SDS011;60111;48.286;7.812;2023-02-26T00:26:03;2.12;;;1.70;;
72205;SDS011;60111;48.286;7.812;2023-02-26T00:28:36;2.72;;;1.65;;
72205;SDS011;60111;48.286;7.812;2023-02-26T00:31:09;2.10;;;1.60;;
72205;SDS011;60111;48.286;7.812;2023-02-26T00:33:43;2.60;;;1.70;;
72205;SDS011;60111;48.286;7.812;2023-02-26T00:39:05;2.80;;;1.82;;
72205;SDS011;60111;48.286;7.812;2023-02-26T00:41:39;2.08;;;1.55;;
72205;SDS011;60111;48.286;7.812;2023-02-26T00:44:12;3.35;;;1.70;;
72205;SDS011;60111;48.286;7.812;2023-02-26T00:46:48;2.40;;;1.50;;
72205;SDS011;60111;48.286;7.812;2023-02-26T00:49:46;6.03;;;2.12;;
72205;SDS011;60111;48.286;7.812;2023-02-26T00:55:20;6.40;;;2.02;;
72205;SDS011;60111;48.286;7.812;2023-02-26T00:57:53;5.20;;;1.72;;
72205;SDS011;60111;48.286;7.812;2023-02-26T01:00:26;3.45;;;1.90;;
72205;SDS011;60111;48.286;7.812;2023-02-26T01:02:59;3.58;;;2.00;;
72205;SDS011;60111;48.286;7.812;2023-02-26T01:05:33;5.45;;;2.05;;
72205;SDS011;60111;48.286;7.812;2023-02-26T01:10:47;5.65;;;2.20;;
72205;SDS011;60111;48.286;7.812;2023-02-26T01:13:20;2.83;;;2.20;;
72205;SDS011;60111;48.286;7.812;2023-02-26T01:18:52;2.60;;;2.20;;
72205;SDS011;60111;48.286;7.812;2023-02-26T01:21:30;3.05;;;2.00;;
72205;SDS011;60111;48.286;7.812;2023-02-26T01:24:04;5.20;;;2.10;;
72205;SDS011;60111;48.286;7.812;2023-02-26T01:26:39;4.67;;;2.00;;
72205;SDS011;60111;48.286;7.812;2023-02-26T01:29:11;2.08;;;1.77;;
72205;SDS011;60111;48.286;7.812;2023-02-26T01:34:34;3.00;;;1.87;;
72205;SDS011;60111;48.286;7.812;2023-02-26T01:42:35;4.28;;;1.80;;
72205;SDS011;60111;48.286;7.812;2023-02-26T01:45:18;2.67;;;1.90;;
72205;SDS011;60111;48.286;7.812;2023-02-26T01:48:06;2.00;;;1.80;;
72205;SDS011;60111;48.286;7.812;2023-02-26T01:50:40;2.33;;;1.70;;
72205;SDS011;60111;48.286;7.812;2023-02-26T01:55:55;3.87;;;1.87;;
72205;SDS011;60111;48.286;7.812;2023-02-26T01:58:31;3.12;;;2.00;;
72205;SDS011;60111;48.286;7.812;2023-02-26T02:01:06;3.42;;;1.80;;
72205;SDS011;60111;48.286;7.812;2023-02-26T02:03:39;5.83;;;2.22;;
72205;SDS011;60111;48.286;7.812;2023-02-26T02:06:17;2.37;;;2.00;;
72205;SDS011;60111;48.286;7.812;2023-02-26T02:08:54;3.27;;;1.95;;
72205;SDS011;60111;48.286;7.812;2023-02-26T02:11:27;2.80;;;2.10;;
72205;SDS011;60111;48.286;7.812;2023-02-26T02:16:47;7.78;;;1.98;;
72205;SDS011;60111;48.286;7.812;2023-02-26T02:19:42;3.07;;;2.00;;
72205;SDS011;60111;48.286;7.812;2023-02-26T02:31:43;3.47;;;2.10;;
72205;SDS011;60111;48.286;7.812;2023-02-26T02:34:25;2.98;;;1.85;;
72205;SDS011;60111;48.286;7.812;2023-02-26T02:37:30;5.50;;;2.45;;
72205;SDS011;60111;48.286;7.812;2023-02-26T02:39:46;2.35;;;2.15;;
72205;SDS011;60111;48.286;7.812;2023-02-26T02:42:37;4.58;;;2.25;;
72205;SDS011;60111;48.286;7.812;2023-02-26T02:45:14;5.62;;;2.45;;
72205;SDS011;60111;48.286;7.812;2023-02-26T02:47:42;4.55;;;2.62;;
72205;SDS011;60111;48.286;7.812;2023-02-26T02:50:22;4.37;;;2.40;;
72205;SDS011;60111;48.286;7.812;2023-02-26T02:53:21;3.22;;;2.10;;
72205;SDS011;60111;48.286;7.812;2023-02-26T02:56:01;3.50;;;2.80;;
72205;SDS011;60111;48.286;7.812;2023-02-26T02:58:32;6.75;;;2.45;;
72205;SDS011;60111;48.286;7.812;2023-02-26T03:01:08;2.95;;;2.45;;
72205;SDS011;60111;48.286;7.812;2023-02-26T03:03:45;3.20;;;2.52;;
72205;SDS011;60111;48.286;7.812;2023-02-26T03:06:21;5.45;;;2.83;;
72205;SDS011;60111;48.286;7.812;2023-02-26T03:08:54;4.28;;;2.77;;
72205;SDS011;60111;48.286;7.812;2023-02-26T03:11:27;5.43;;;2.80;;
72205;SDS011;60111;48.286;7.812;2023-02-26T03:14:09;6.45;;;2.70;;
72205;SDS011;60111;48.286;7.812;2023-02-26T03:22:06;6.22;;;2.80;;
72205;SDS011;60111;48.286;7.812;2023-02-26T03:25:07;5.83;;;2.75;;
72205;SDS011;60111;48.286;7.812;2023-02-26T03:36:05;4.05;;;2.58;;
72205;SDS011;60111;48.286;7.812;2023-02-26T03:41:26;4.10;;;2.47;;
72205;SDS011;60111;48.286;7.812;2023-02-26T03:43:58;4.62;;;2.40;;
72205;SDS011;60111;48.286;7.812;2023-02-26T03:46:34;3.52;;;2.50;;
72205;SDS011;60111;48.286;7.812;2023-02-26T03:49:08;4.47;;;2.42;;
72205;SDS011;60111;48.286;7.812;2023-02-26T03:51:42;6.30;;;2.47;;
72205;SDS011;60111;48.286;7.812;2023-02-26T03:56:53;4.20;;;2.40;;
72205;SDS011;60111;48.286;7.812;2023-02-26T03:59:26;4.28;;;2.40;;
72205;SDS011;60111;48.286;7.812;2023-02-26T04:02:01;3.90;;;2.33;;
72205;SDS011;60111;48.286;7.812;2023-02-26T04:04:36;5.17;;;2.30;;
72205;SDS011;60111;48.286;7.812;2023-02-26T04:07:13;6.53;;;2.60;;
72205;SDS011;60111;48.286;7.812;2023-02-26T04:09:48;3.83;;;2.10;;
72205;SDS011;60111;48.286;7.812;2023-02-26T04:12:23;8.65;;;2.17;;
72205;SDS011;60111;48.286;7.812;2023-02-26T04:14:58;3.12;;;2.20;;
72205;SDS011;60111;48.286;7.812;2023-02-26T04:17:31;3.45;;;2.30;;
72205;SDS011;60111;48.286;7.812;2023-02-26T04:20:04;4.43;;;2.47;;
72205;SDS011;60111;48.286;7.812;2023-02-26T04:22:41;6.08;;;2.37;;
72205;SDS011;60111;48.286;7.812;2023-02-26T04:25:14;3.50;;;2.25;;
72205;SDS011;60111;48.286;7.812;2023-02-26T04:27:46;3.58;;;2.50;;
72205;SDS011;60111;48.286;7.812;2023-02-26T04:30:19;2.98;;;2.17;;
72205;SDS011;60111;48.286;7.812;2023-02-26T04:32:52;8.88;;;2.42;;
72205;SDS011;60111;48.286;7.812;2023-02-26T04:35:25;3.72;;;2.70;;
72205;SDS011;60111;48.286;7.812;2023-02-26T04:37:57;5.60;;;2.42;;
72205;SDS011;60111;48.286;7.812;2023-02-26T04:40:30;3.12;;;2.60;;
72205;SDS011;60111;48.286;7.812;2023-02-26T04:43:04;4.05;;;2.90;;
72205;SDS011;60111;48.286;7.812;2023-02-26T04:45:36;6.83;;;3.17;;
72205;SDS011;60111;48.286;7.812;2023-02-26T04:48:09;4.58;;;3.00;;
72205;SDS011;60111;48.286;7.812;2023-02-26T04:50:42;10.05;;;7.87;;
72205;SDS011;60111;48.286;7.812;2023-02-26T04:53:15;5.60;;;4.37;;
72205;SDS011;60111;48.286;7.812;2023-02-26T04:55:47;6.12;;;2.98;;
72205;SDS011;60111;48.286;7.812;2023-02-26T04:58:20;4.00;;;3.17;;
72205;SDS011;60111;48.286;7.812;2023-02-26T05:00:53;4.30;;;2.70;;
72205;SDS011;60111;48.286;7.812;2023-02-26T05:03:25;6.03;;;2.80;;
72205;SDS011;60111;48.286;7.812;2023-02-26T05:05:58;4.70;;;3.10;;
72205;SDS011;60111;48.286;7.812;2023-02-26T05:08:31;4.83;;;2.80;;
72205;SDS011;60111;48.286;7.812;2023-02-26T05:11:04;5.65;;;2.85;;
72205;SDS011;60111;48.286;7.812;2023-02-26T05:13:37;3.72;;;3.02;;
72205;SDS011;60111;48.286;7.812;2023-02-26T05:16:10;6.37;;;3.08;;
72205;SDS011;60111;48.286;7.812;2023-02-26T05:18:42;5.75;;;3.10;;
72205;SDS011;60111;48.286;7.812;2023-02-26T05:21:15;5.10;;;3.25;;
72205;SDS011;60111;48.286;7.812;2023-02-26T05:23:47;6.08;;;3.40;;
72205;SDS011;60111;48.286;7.812;2023-02-26T05:26:20;4.78;;;3.17;;
72205;SDS011;60111;48.286;7.812;2023-02-26T05:28:52;5.37;;;3.17;;
72205;SDS011;60111;48.286;7.812;2023-02-26T05:31:25;7.00;;;3.52;;
72205;SDS011;60111;48.286;7.812;2023-02-26T05:33:58;6.95;;;3.50;;
72205;SDS011;60111;48.286;7.812;2023-02-26T05:36:31;5.15;;;3.20;;
72205;SDS011;60111;48.286;7.812;2023-02-26T05:39:03;8.63;;;4.00;;
72205;SDS011;60111;48.286;7.812;2023-02-26T05:41:36;7.35;;;4.10;;
72205;SDS011;60111;48.286;7.812;2023-02-26T05:44:08;6.60;;;4.00;;
72205;SDS011;60111;48.286;7.812;2023-02-26T05:46:41;8.20;;;3.75;;
72205;SDS011;60111;48.286;7.812;2023-02-26T05:49:14;6.65;;;3.55;;
72205;SDS011;60111;48.286;7.812;2023-02-26T05:51:46;4.65;;;3.45;;
72205;SDS011;60111;48.286;7.812;2023-02-26T05:54:19;8.48;;;3.62;;
72205;SDS011;60111;48.286;7.812;2023-02-26T05:56:51;7.22;;;4.42;;
72205;SDS011;60111;48.286;7.812;2023-02-26T05:59:24;7.92;;;4.10;;
72205;SDS011;60111;48.286;7.812;2023-02-26T06:01:57;11.33;;;4.30;;
72205;SDS011;60111;48.286;7.812;2023-02-26T06:04:29;7.80;;;3.90;;
72205;SDS011;60111;48.286;7.812;2023-02-26T06:07:02;6.55;;;3.95;;
72205;SDS011;60111;48.286;7.812;2023-02-26T06:09:35;5.62;;;3.50;;
72205;SDS011;60111;48.286;7.812;2023-02-26T06:12:07;5.97;;;3.47;;
72205;SDS011;60111;48.286;7.812;2023-02-26T06:14:40;5.95;;;3.35;;
72205;SDS011;60111;48.286;7.812;2023-02-26T06:17:13;6.33;;;3.72;;
72205;SDS011;60111;48.286;7.812;2023-02-26T06:19:45;5.20;;;3.40;;
72205;SDS011;60111;48.286;7.812;2023-02-26T06:22:18;6.15;;;2.87;;
72205;SDS011;60111;48.286;7.812;2023-02-26T06:24:51;3.33;;;2.98;;
72205;SDS011;60111;48.286;7.812;2023-02-26T06:27:25;6.45;;;3.35;;
72205;SDS011;60111;48.286;7.812;2023-02-26T06:29:57;5.53;;;3.30;;
72205;SDS011;60111;48.286;7.812;2023-02-26T06:32:31;6.60;;;3.50;;
72205;SDS011;60111;48.286;7.812;2023-02-26T06:35:04;5.53;;;3.30;;
72205;SDS011;60111;48.286;7.812;2023-02-26T06:37:37;6.28;;;3.62;;
72205;SDS011;60111;48.286;7.812;2023-02-26T06:40:10;6.40;;;3.30;;
72205;SDS011;60111;48.286;7.812;2023-02-26T06:42:44;12.33;;;4.62;;
72205;SDS011;60111;48.286;7.812;2023-02-26T06:45:17;9.35;;;4.22;;
72205;SDS011;60111;48.286;7.812;2023-02-26T06:47:50;6.15;;;3.75;;
72205;SDS011;60111;48.286;7.812;2023-02-26T06:50:22;5.37;;;3.25;;
72205;SDS011;60111;48.286;7.812;2023-02-26T06:52:55;7.67;;;3.60;;
72205;SDS011;60111;48.286;7.812;2023-02-26T06:55:28;6.37;;;3.58;;
72205;SDS011;60111;48.286;7.812;2023-02-26T06:58:01;7.05;;;3.40;;
72205;SDS011;60111;48.286;7.812;2023-02-26T07:00:33;5.30;;;3.20;;
72205;SDS011;60111;48.286;7.812;2023-02-26T07:03:13;6.17;;;3.60;;
72205;SDS011;60111;48.286;7.812;2023-02-26T07:05:43;6.37;;;4.10;;
72205;SDS011;60111;48.286;7.812;2023-02-26T07:08:16;4.43;;;3.40;;
72205;SDS011;60111;48.286;7.812;2023-02-26T07:10:49;8.68;;;3.67;;
72205;SDS011;60111;48.286;7.812;2023-02-26T07:13:21;7.55;;;4.62;;
72205;SDS011;60111;48.286;7.812;2023-02-26T07:15:54;7.75;;;4.15;;
72205;SDS011;60111;48.286;7.812;2023-02-26T07:18:27;11.22;;;6.72;;
72205;SDS011;60111;48.286;7.812;2023-02-26T07:20:59;9.60;;;5.08;;
72205;SDS011;60111;48.286;7.812;2023-02-26T07:23:32;6.15;;;5.10;;
72205;SDS011;60111;48.286;7.812;2023-02-26T07:26:05;9.50;;;4.92;;
72205;SDS011;60111;48.286;7.812;2023-02-26T07:28:38;7.17;;;4.67;;
72205;SDS011;60111;48.286;7.812;2023-02-26T07:31:11;7.60;;;4.35;;
72205;SDS011;60111;48.286;7.812;2023-02-26T07:33:45;8.78;;;3.72;;
72205;SDS011;60111;48.286;7.812;2023-02-26T07:36:18;6.28;;;4.20;;
72205;SDS011;60111;48.286;7.812;2023-02-26T07:38:50;9.65;;;4.20;;
72205;SDS011;60111;48.286;7.812;2023-02-26T07:41:23;5.03;;;4.30;;
72205;SDS011;60111;48.286;7.812;2023-02-26T07:43:55;8.45;;;4.83;;
72205;SDS011;60111;48.286;7.812;2023-02-26T07:46:28;8.85;;;4.58;;
72205;SDS011;60111;48.286;7.812;2023-02-26T07:49:01;8.35;;;4.78;;
72205;SDS011;60111;48.286;7.812;2023-02-26T07:51:34;10.58;;;4.85;;
72205;SDS011;60111;48.286;7.812;2023-02-26T07:54:07;9.83;;;4.22;;
72205;SDS011;60111;48.286;7.812;2023-02-26T07:56:40;6.53;;;3.90;;
72205;SDS011;60111;48.286;7.812;2023-02-26T07:59:12;11.15;;;4.75;;
72205;SDS011;60111;48.286;7.812;2023-02-26T08:01:45;9.03;;;6.22;;
72205;SDS011;60111;48.286;7.812;2023-02-26T08:04:17;8.07;;;4.50;;
72205;SDS011;60111;48.286;7.812;2023-02-26T08:06:50;11.60;;;4.90;;
72205;SDS011;60111;48.286;7.812;2023-02-26T08:09:24;15.63;;;5.97;;
72205;SDS011;60111;48.286;7.812;2023-02-26T08:11:57;10.45;;;4.50;;
72205;SDS011;60111;48.286;7.812;2023-02-26T08:14:30;9.85;;;4.12;;
72205;SDS011;60111;48.286;7.812;2023-02-26T08:17:02;10.82;;;5.37;;
72205;SDS011;60111;48.286;7.812;2023-02-26T08:19:35;8.05;;;4.25;;
72205;SDS011;60111;48.286;7.812;2023-02-26T08:22:07;5.92;;;4.25;;
72205;SDS011;60111;48.286;7.812;2023-02-26T08:24:40;8.23;;;4.12;;
72205;SDS011;60111;48.286;7.812;2023-02-26T08:27:13;5.03;;;3.85;;
72205;SDS011;60111;48.286;7.812;2023-02-26T08:29:45;9.35;;;4.20;;
72205;SDS011;60111;48.286;7.812;2023-02-26T08:32:20;9.65;;;4.67;;
72205;SDS011;60111;48.286;7.812;2023-02-26T08:34:52;15.03;;;6.17;;
72205;SDS011;60111;48.286;7.812;2023-02-26T08:37:25;12.82;;;5.10;;
72205;SDS011;60111;48.286;7.812;2023-02-26T08:39:58;11.28;;;5.50;;
72205;SDS011;60111;48.286;7.812;2023-02-26T08:42:31;12.40;;;4.78;;
72205;SDS011;60111;48.286;7.812;2023-02-26T08:45:04;9.60;;;5.10;;
72205;SDS011;60111;48.286;7.812;2023-02-26T08:47:37;8.93;;;4.77;;
72205;SDS011;60111;48.286;7.812;2023-02-26T08:50:11;11.20;;;5.15;;
72205;SDS011;60111;48.286;7.812;2023-02-26T08:52:44;7.95;;;5.00;;
72205;SDS011;60111;48.286;7.812;2023-02-26T08:55:17;6.87;;;4.92;;
72205;SDS011;60111;48.286;7.812;2023-02-26T08:57:49;7.42;;;4.37;;
72205;SDS011;60111;48.286;7.812;2023-02-26T09:00:22;5.72;;;3.67;;
72205;SDS011;60111;48.286;7.812;2023-02-26T09:02:54;7.83;;;3.60;;
72205;SDS011;60111;48.286;7.812;2023-02-26T09:05:27;8.83;;;3.83;;
72205;SDS011;60111;48.286;7.812;2023-02-26T09:08:00;10.10;;;3.98;;
72205;SDS011;60111;48.286;7.812;2023-02-26T09:10:32;7.03;;;4.00;;
72205;SDS011;60111;48.286;7.812;2023-02-26T09:13:05;7.03;;;4.22;;
72205;SDS011;60111;48.286;7.812;2023-02-26T09:15:38;6.42;;;3.85;;
72205;SDS011;60111;48.286;7.812;2023-02-26T09:18:10;6.83;;;3.50;;
72205;SDS011;60111;48.286;7.812;2023-02-26T09:20:45;10.10;;;5.10;;
72205;SDS011;60111;48.286;7.812;2023-02-26T09:23:17;7.97;;;5.00;;
72205;SDS011;60111;48.286;7.812;2023-02-26T09:25:55;8.40;;;4.10;;
72205;SDS011;60111;48.286;7.812;2023-02-26T09:28:24;10.15;;;4.30;;
72205;SDS011;60111;48.286;7.812;2023-02-26T09:30:57;6.97;;;3.92;;
72205;SDS011;60111;48.286;7.812;2023-02-26T09:33:30;6.75;;;4.20;;
72205;SDS011;60111;48.286;7.812;2023-02-26T09:36:02;8.05;;;3.60;;
72205;SDS011;60111;48.286;7.812;2023-02-26T09:38:35;8.80;;;3.55;;
72205;SDS011;60111;48.286;7.812;2023-02-26T09:41:09;4.22;;;2.85;;
72205;SDS011;60111;48.286;7.812;2023-02-26T09:46:37;6.00;;;3.20;;
72205;SDS011;60111;48.286;7.812;2023-02-26T09:55:12;3.67;;;2.67;;
72205;SDS011;60111;48.286;7.812;2023-02-26T09:57:59;6.10;;;2.83;;
72205;SDS011;60111;48.286;7.812;2023-02-26T10:00:48;5.08;;;3.12;;
72205;SDS011;60111;48.286;7.812;2023-02-26T10:09:05;7.40;;;3.30;;
72205;SDS011;60111;48.286;7.812;2023-02-26T10:11:56;10.78;;;3.20;;
72205;SDS011;60111;48.286;7.812;2023-02-26T10:14:56;9.10;;;2.98;;
72205;SDS011;60111;48.286;7.812;2023-02-26T10:20:10;6.28;;;2.92;;
72205;SDS011;60111;48.286;7.812;2023-02-26T10:25:37;6.10;;;3.08;;
72205;SDS011;60111;48.286;7.812;2023-02-26T10:30:54;6.27;;;3.30;;
72205;SDS011;60111;48.286;7.812;2023-02-26T10:36:34;7.25;;;3.30;;
72205;SDS011;60111;48.286;7.812;2023-02-26T10:38:54;7.65;;;3.98;;
72205;SDS011;60111;48.286;7.812;2023-02-26T10:41:36;6.03;;;3.40;;
72205;SDS011;60111;48.286;7.812;2023-02-26T10:44:13;4.80;;;2.75;;
72205;SDS011;60111;48.286;7.812;2023-02-26T10:46:53;4.70;;;3.15;;
72205;SDS011;60111;48.286;7.812;2023-02-26T10:49:32;8.18;;;2.77;;
72205;SDS011;60111;48.286;7.812;2023-02-26T10:52:20;6.70;;;3.10;;
72205;SDS011;60111;48.286;7.812;2023-02-26T10:58:10;3.98;;;2.80;;
72205;SDS011;60111;48.286;7.812;2023-02-26T11:00:27;4.90;;;2.75;;
72205;SDS011;60111;48.286;7.812;2023-02-26T11:02:59;6.35;;;2.80;;
72205;SDS011;60111;48.286;7.812;2023-02-26T11:05:35;5.37;;;3.30;;
72205;SDS011;60111;48.286;7.812;2023-02-26T11:08:09;9.00;;;3.40;;
72205;SDS011;60111;48.286;7.812;2023-02-26T11:10:47;6.15;;;3.20;;
72205;SDS011;60111;48.286;7.812;2023-02-26T11:13:24;5.73;;;2.93;;
72205;SDS011;60111;48.286;7.812;2023-02-26T11:16:02;5.05;;;2.85;;
72205;SDS011;60111;48.286;7.812;2023-02-26T11:18:49;7.75;;;3.05;;
72205;SDS011;60111;48.286;7.812;2023-02-26T11:21:29;5.65;;;3.55;;
72205;SDS011;60111;48.286;7.812;2023-02-26T11:24:06;6.95;;;3.20;;
72205;SDS011;60111;48.286;7.812;2023-02-26T11:26:42;4.95;;;2.90;;
72205;SDS011;60111;48.286;7.812;2023-02-26T11:29:19;6.25;;;2.47;;
72205;SDS011;60111;48.286;7.812;2023-02-26T11:31:58;4.87;;;2.47;;
72205;SDS011;60111;48.286;7.812;2023-02-26T11:34:32;4.00;;;2.10;;
72205;SDS011;60111;48.286;7.812;2023-02-26T11:37:06;3.53;;;2.30;;
72205;SDS011;60111;48.286;7.812;2023-02-26T11:39:39;3.42;;;1.85;;
72205;SDS011;60111;48.286;7.812;2023-02-26T11:42:11;1.72;;;1.62;;
72205;SDS011;60111;48.286;7.812;2023-02-26T11:44:45;2.10;;;1.37;;
72205;SDS011;60111;48.286;7.812;2023-02-26T11:47:23;3.00;;;2.05;;
72205;SDS011;60111;48.286;7.812;2023-02-26T11:50:01;2.98;;;1.60;;
72205;SDS011;60111;48.286;7.812;2023-02-26T11:52:40;3.50;;;2.22;;
72205;SDS011;60111;48.286;7.812;2023-02-26T11:55:28;3.30;;;2.20;;
72205;SDS011;60111;48.286;7.812;2023-02-26T11:58:03;3.25;;;2.05;;
72205;SDS011;60111;48.286;7.812;2023-02-26T12:00:38;4.13;;;2.70;;
72205;SDS011;60111;48.286;7.812;2023-02-26T12:03:15;3.25;;;2.40;;
72205;SDS011;60111;48.286;7.812;2023-02-26T12:05:50;4.28;;;1.80;;
72205;SDS011;60111;48.286;7.812;2023-02-26T12:08:39;3.62;;;2.30;;
72205;SDS011;60111;48.286;7.812;2023-02-26T12:20:16;5.70;;;2.30;;
72205;SDS011;60111;48.286;7.812;2023-02-26T12:31:56;3.87;;;2.80;;
72205;SDS011;60111;48.286;7.812;2023-02-26T12:40:26;3.98;;;2.87;;
72205;SDS011;60111;48.286;7.812;2023-02-26T12:43:10;6.83;;;3.50;;
72205;SDS011;60111;48.286;7.812;2023-02-26T12:45:55;4.12;;;3.40;;
72205;SDS011;60111;48.286;7.812;2023-02-26T13:08:39;3.05;;;2.10;;
72205;SDS011;60111;48.286;7.812;2023-02-26T13:20:20;3.55;;;2.60;;
72205;SDS011;60111;48.286;7.812;2023-02-26T13:22:58;3.55;;;2.52;;
72205;SDS011;60111;48.286;7.812;2023-02-26T13:31:16;3.40;;;2.43;;
72205;SDS011;60111;48.286;7.812;2023-02-26T13:36:44;5.25;;;2.92;;
72205;SDS011;60111;48.286;7.812;2023-02-26T13:39:27;4.53;;;2.92;;
72205;SDS011;60111;48.286;7.812;2023-02-26T13:42:02;3.75;;;2.30;;
72205;SDS011;60111;48.286;7.812;2023-02-26T13:52:34;6.15;;;4.80;;
72205;SDS011;60111;48.286;7.812;2023-02-26T13:55:33;12.88;;;6.87;;
72205;SDS011;60111;48.286;7.812;2023-02-26T13:57:52;3.98;;;3.08;;
72205;SDS011;60111;48.286;7.812;2023-02-26T14:03:10;2.65;;;2.10;;
72205;SDS011;60111;48.286;7.812;2023-02-26T14:14:09;3.05;;;2.12;;
72205;SDS011;60111;48.286;7.812;2023-02-26T14:16:41;3.83;;;2.43;;
72205;SDS011;60111;48.286;7.812;2023-02-26T14:19:26;2.98;;;2.42;;
72205;SDS011;60111;48.286;7.812;2023-02-26T14:22:46;5.50;;;3.23;;
72205;SDS011;60111;48.286;7.812;2023-02-26T14:24:55;3.05;;;2.58;;
72205;SDS011;60111;48.286;7.812;2023-02-26T14:27:37;8.10;;;3.90;;
72205;SDS011;60111;48.286;7.812;2023-02-26T14:35:42;6.87;;;3.80;;
72205;SDS011;60111;48.286;7.812;2023-02-26T14:41:08;5.30;;;2.92;;
72205;SDS011;60111;48.286;7.812;2023-02-26T14:43:45;10.60;;;5.50;;
72205;SDS011;60111;48.286;7.812;2023-02-26T14:46:21;7.20;;;5.00;;
72205;SDS011;60111;48.286;7.812;2023-02-26T14:48:54;7.92;;;4.53;;
72205;SDS011;60111;48.286;7.812;2023-02-26T14:54:31;7.45;;;2.90;;
72205;SDS011;60111;48.286;7.812;2023-02-26T14:57:40;3.90;;;2.55;;
72205;SDS011;60111;48.286;7.812;2023-02-26T15:03:12;3.15;;;2.80;;
72205;SDS011;60111;48.286;7.812;2023-02-26T15:14:16;2.92;;;2.30;;
72205;SDS011;60111;48.286;7.812;2023-02-26T15:25:32;2.90;;;2.00;;
72205;SDS011;60111;48.286;7.812;2023-02-26T15:28:09;3.85;;;2.40;;
72205;SDS011;60111;48.286;7.812;2023-02-26T15:30:45;2.50;;;2.07;;
72205;SDS011;60111;48.286;7.812;2023-02-26T15:33:21;4.92;;;3.60;;
72205;SDS011;60111;48.286;7.812;2023-02-26T15:35:56;5.50;;;4.15;;
72205;SDS011;60111;48.286;7.812;2023-02-26T15:38:38;8.18;;;2.60;;
72205;SDS011;60111;48.286;7.812;2023-02-26T15:41:12;2.55;;;1.70;;
72205;SDS011;60111;48.286;7.812;2023-02-26T15:43:47;1.62;;;1.50;;
72205;SDS011;60111;48.286;7.812;2023-02-26T15:46:22;1.55;;;1.45;;
72205;SDS011;60111;48.286;7.812;2023-02-26T15:49:04;1.70;;;1.60;;
72205;SDS011;60111;48.286;7.812;2023-02-26T15:51:33;2.17;;;1.62;;
72205;SDS011;60111;48.286;7.812;2023-02-26T15:54:06;2.55;;;1.77;;
72205;SDS011;60111;48.286;7.812;2023-02-26T15:56:41;1.92;;;1.80;;
72205;SDS011;60111;48.286;7.812;2023-02-26T15:59:21;2.65;;;1.72;;
72205;SDS011;60111;48.286;7.812;2023-02-26T16:02:00;2.75;;;2.10;;
72205;SDS011;60111;48.286;7.812;2023-02-26T16:04:33;2.00;;;1.70;;
72205;SDS011;60111;48.286;7.812;2023-02-26T16:07:08;2.65;;;1.70;;
72205;SDS011;60111;48.286;7.812;2023-02-26T16:09:44;2.90;;;1.90;;
72205;SDS011;60111;48.286;7.812;2023-02-26T16:12:18;2.83;;;1.80;;
72205;SDS011;60111;48.286;7.812;2023-02-26T16:14:56;2.00;;;1.70;;
72205;SDS011;60111;48.286;7.812;2023-02-26T16:17:32;5.90;;;3.50;;
72205;SDS011;60111;48.286;7.812;2023-02-26T16:20:18;2.80;;;2.50;;
72205;SDS011;60111;48.286;7.812;2023-02-26T16:22:55;5.05;;;4.55;;
72205;SDS011;60111;48.286;7.812;2023-02-26T16:25:34;2.02;;;1.70;;
72205;SDS011;60111;48.286;7.812;2023-02-26T16:28:13;2.00;;;1.77;;
72205;SDS011;60111;48.286;7.812;2023-02-26T16:30:48;3.98;;;3.30;;
72205;SDS011;60111;48.286;7.812;2023-02-26T16:33:23;3.62;;;2.37;;
72205;SDS011;60111;48.286;7.812;2023-02-26T16:36:11;2.60;;;2.30;;
72205;SDS011;60111;48.286;7.812;2023-02-26T16:38:43;3.20;;;2.25;;
72205;SDS011;60111;48.286;7.812;2023-02-26T16:41:21;3.10;;;1.90;;
72205;SDS011;60111;48.286;7.812;2023-02-26T16:43:57;3.30;;;2.30;;
72205;SDS011;60111;48.286;7.812;2023-02-26T16:46:41;2.40;;;1.87;;
72205;SDS011;60111;48.286;7.812;2023-02-26T16:49:21;2.77;;;2.17;;
72205;SDS011;60111;48.286;7.812;2023-02-26T16:51:54;2.72;;;2.52;;
72205;SDS011;60111;48.286;7.812;2023-02-26T16:54:32;3.00;;;2.13;;
72205;SDS011;60111;48.286;7.812;2023-02-26T16:57:15;4.00;;;2.37;;
72205;SDS011;60111;48.286;7.812;2023-02-26T16:59:52;2.33;;;2.00;;
72205;SDS011;60111;48.286;7.812;2023-02-26T17:02:28;4.60;;;2.80;;
72205;SDS011;60111;48.286;7.812;2023-02-26T17:05:13;2.33;;;1.67;;
72205;SDS011;60111;48.286;7.812;2023-02-26T17:07:53;3.67;;;2.40;;
72205;SDS011;60111;48.286;7.812;2023-02-26T17:10:32;2.83;;;2.00;;
72205;SDS011;60111;48.286;7.812;2023-02-26T17:13:25;3.05;;;2.12;;
72205;SDS011;60111;48.286;7.812;2023-02-26T17:15:52;2.40;;;1.90;;
72205;SDS011;60111;48.286;7.812;2023-02-26T17:18:24;2.40;;;2.20;;
72205;SDS011;60111;48.286;7.812;2023-02-26T17:20:57;2.50;;;2.15;;
72205;SDS011;60111;48.286;7.812;2023-02-26T17:23:36;2.95;;;2.00;;
72205;SDS011;60111;48.286;7.812;2023-02-26T17:26:12;3.07;;;2.17;;
72205;SDS011;60111;48.286;7.812;2023-02-26T17:28:44;3.77;;;1.90;;
72205;SDS011;60111;48.286;7.812;2023-02-26T17:31:17;4.03;;;2.47;;
72205;SDS011;60111;48.286;7.812;2023-02-26T17:33:50;3.67;;;2.40;;
72205;SDS011;60111;48.286;7.812;2023-02-26T17:36:22;5.47;;;2.35;;
72205;SDS011;60111;48.286;7.812;2023-02-26T17:38:56;4.47;;;2.70;;
72205;SDS011;60111;48.286;7.812;2023-02-26T17:41:29;4.97;;;2.77;;
72205;SDS011;60111;48.286;7.812;2023-02-26T17:46:53;3.42;;;2.70;;
72205;SDS011;60111;48.286;7.812;2023-02-26T17:49:26;4.22;;;3.30;;
72205;SDS011;60111;48.286;7.812;2023-02-26T17:51:58;3.90;;;3.17;;
72205;SDS011;60111;48.286;7.812;2023-02-26T17:54:31;2.95;;;2.47;;
72205;SDS011;60111;48.286;7.812;2023-02-26T17:57:08;5.05;;;3.00;;
72205;SDS011;60111;48.286;7.812;2023-02-26T17:59:42;3.45;;;1.98;;
72205;SDS011;60111;48.286;7.812;2023-02-26T18:02:16;2.30;;;2.10;;
72205;SDS011;60111;48.286;7.812;2023-02-26T18:04:55;3.45;;;2.60;;
72205;SDS011;60111;48.286;7.812;2023-02-26T18:07:27;3.85;;;2.65;;
72205;SDS011;60111;48.286;7.812;2023-02-26T18:10:00;2.87;;;2.33;;
72205;SDS011;60111;48.286;7.812;2023-02-26T18:12:33;2.52;;;2.10;;
72205;SDS011;60111;48.286;7.812;2023-02-26T18:17:41;3.95;;;2.40;;
72205;SDS011;60111;48.286;7.812;2023-02-26T18:20:16;3.10;;;2.50;;
72205;SDS011;60111;48.286;7.812;2023-02-26T18:22:51;3.47;;;2.62;;
72205;SDS011;60111;48.286;7.812;2023-02-26T18:25:24;9.60;;;4.58;;
72205;SDS011;60111;48.286;7.812;2023-02-26T18:27:58;4.83;;;3.85;;
72205;SDS011;60111;48.286;7.812;2023-02-26T18:30:32;3.70;;;3.00;;
72205;SDS011;60111;48.286;7.812;2023-02-26T18:33:10;7.62;;;5.70;;
72205;SDS011;60111;48.286;7.812;2023-02-26T18:35:45;5.47;;;4.03;;
72205;SDS011;60111;48.286;7.812;2023-02-26T18:38:23;5.85;;;4.80;;
72205;SDS011;60111;48.286;7.812;2023-02-26T18:40:57;6.37;;;3.75;;
72205;SDS011;60111;48.286;7.812;2023-02-26T18:46:03;5.28;;;2.60;;
72205;SDS011;60111;48.286;7.812;2023-02-26T18:48:37;4.53;;;3.40;;
72205;SDS011;60111;48.286;7.812;2023-02-26T18:51:09;4.10;;;2.98;;
72205;SDS011;60111;48.286;7.812;2023-02-26T18:53:42;6.83;;;3.45;;
72205;SDS011;60111;48.286;7.812;2023-02-26T18:56:15;4.75;;;3.12;;
72205;SDS011;60111;48.286;7.812;2023-02-26T18:58:48;7.05;;;3.00;;